sensor_id;sensor_type;location;lat;lon;timestamp;temperature;humidity
21298;DHT22;10808;48.010;11.326;2023-10-31T00:02:04;11.20;99.90
21298;DHT22;10808;48.010;11.326;2023-10-31T00:04:30;11.20;99.90
21298;DHT22;10808;48.010;11.326;2023-10-31T00:06:56;11.20;99.90
21298;DHT22;10808;48.010;11.326;2023-10-31T00:09:22;11.10;99.90
21298;DHT22;10808;48.010;11.326;2023-10-31T00:11:48;11.20;99.90
21298;DHT22;10808;48.010;11.326;2023-10-31T00:14:15;11.10;99.90
21298;DHT22;10808;48.010;11.326;2023-10-31T00:16:41;11.10;99.90
21298;DHT22;10808;48.010;11.326;2023-10-31T00:19:07;11.10;99.90
21298;DHT22;10808;48.010;11.326;2023-10-31T00:21:33;11.10;99.90
21298;DHT22;10808;48.010;11.326;2023-10-31T00:23:59;11.10;99.90
21298;DHT22;10808;48.010;11.326;2023-10-31T00:26:25;11.00;99.90
21298;DHT22;10808;48.010;11.326;2023-10-31T00:28:51;11.10;99.90
21298;DHT22;10808;48.010;11.326;2023-10-31T00:31:17;11.00;99.90
21298;DHT22;10808;48.010;11.326;2023-10-31T00:33:43;11.00;99.90
21298;DHT22;10808;48.010;11.326;2023-10-31T00:36:10;11.00;99.90
21298;DHT22;10808;48.010;11.326;2023-10-31T00:38:36;11.00;99.90
21298;DHT22;10808;48.010;11.326;2023-10-31T00:41:02;11.00;99.90
21298;DHT22;10808;48.010;11.326;2023-10-31T00:43:29;11.00;99.90
21298;DHT22;10808;48.010;11.326;2023-10-31T00:45:55;11.00;99.90
21298;DHT22;10808;48.010;11.326;2023-10-31T00:48:22;11.00;99.90
21298;DHT22;10808;48.010;11.326;2023-10-31T00:50:49;11.00;99.90
21298;DHT22;10808;48.010;11.326;2023-10-31T00:53:15;11.10;99.90
21298;DHT22;10808;48.010;11.326;2023-10-31T00:55:42;11.00;99.90
21298;DHT22;10808;48.010;11.326;2023-10-31T00:58:08;11.10;99.90
21298;DHT22;10808;48.010;11.326;2023-10-31T01:00:34;11.00;99.90
21298;DHT22;10808;48.010;11.326;2023-10-31T01:03:03;11.00;99.90
21298;DHT22;10808;48.010;11.326;2023-10-31T01:05:29;11.00;99.90
21298;DHT22;10808;48.010;11.326;2023-10-31T01:07:55;11.00;99.90
21298;DHT22;10808;48.010;11.326;2023-10-31T01:10:21;11.00;99.90
21298;DHT22;10808;48.010;11.326;2023-10-31T01:12:48;11.00;99.90
21298;DHT22;10808;48.010;11.326;2023-10-31T01:15:14;11.00;99.90
21298;DHT22;10808;48.010;11.326;2023-10-31T01:17:40;11.00;99.90
21298;DHT22;10808;48.010;11.326;2023-10-31T01:20:07;11.00;99.90
21298;DHT22;10808;48.010;11.326;2023-10-31T01:22:33;11.00;99.90
21298;DHT22;10808;48.010;11.326;2023-10-31T01:24:59;11.00;99.90
21298;DHT22;10808;48.010;11.326;2023-10-31T01:27:26;11.00;99.90
21298;DHT22;10808;48.010;11.326;2023-10-31T01:29:52;10.90;99.90
21298;DHT22;10808;48.010;11.326;2023-10-31T01:32:18;10.90;99.90
21298;DHT22;10808;48.010;11.326;2023-10-31T01:34:44;10.90;99.90
21298;DHT22;10808;48.010;11.326;2023-10-31T01:37:10;10.90;99.90
21298;DHT22;10808;48.010;11.326;2023-10-31T01:39:37;10.80;99.90
21298;DHT22;10808;48.010;11.326;2023-10-31T01:42:03;10.80;99.90
21298;DHT22;10808;48.010;11.326;2023-10-31T01:44:30;10.80;99.90
21298;DHT22;10808;48.010;11.326;2023-10-31T01:46:56;10.70;99.90
21298;DHT22;10808;48.010;11.326;2023-10-31T01:49:23;10.70;99.90
21298;DHT22;10808;48.010;11.326;2023-10-31T01:51:50;10.70;99.90
21298;DHT22;10808;48.010;11.326;2023-10-31T01:54:17;10.70;99.90
21298;DHT22;10808;48.010;11.326;2023-10-31T01:56:44;10.70;99.90
21298;DHT22;10808;48.010;11.326;2023-10-31T01:59:10;10.60;99.90
21298;DHT22;10808;48.010;11.326;2023-10-31T02:01:38;10.70;99.90
21298;DHT22;10808;48.010;11.326;2023-10-31T02:04:05;10.60;99.90
21298;DHT22;10808;48.010;11.326;2023-10-31T02:06:32;10.60;99.90
21298;DHT22;10808;48.010;11.326;2023-10-31T02:08:58;10.60;99.90
21298;DHT22;10808;48.010;11.326;2023-10-31T02:11:24;10.60;99.90
21298;DHT22;10808;48.010;11.326;2023-10-31T02:13:50;10.60;99.90
21298;DHT22;10808;48.010;11.326;2023-10-31T02:16:16;10.50;99.90
21298;DHT22;10808;48.010;11.326;2023-10-31T02:18:43;10.50;99.90
21298;DHT22;10808;48.010;11.326;2023-10-31T02:21:09;10.50;99.90
21298;DHT22;10808;48.010;11.326;2023-10-31T02:23:35;10.50;99.90
21298;DHT22;10808;48.010;11.326;2023-10-31T02:26:02;10.50;99.90
21298;DHT22;10808;48.010;11.326;2023-10-31T02:28:29;10.60;99.90
21298;DHT22;10808;48.010;11.326;2023-10-31T02:30:56;10.50;99.90
21298;DHT22;10808;48.010;11.326;2023-10-31T02:33:23;10.60;99.90
21298;DHT22;10808;48.010;11.326;2023-10-31T02:35:49;10.60;99.90
21298;DHT22;10808;48.010;11.326;2023-10-31T02:38:15;10.60;99.90
21298;DHT22;10808;48.010;11.326;2023-10-31T02:40:41;10.60;99.90
21298;DHT22;10808;48.010;11.326;2023-10-31T02:43:08;10.60;99.90
21298;DHT22;10808;48.010;11.326;2023-10-31T02:45:34;10.60;99.90
21298;DHT22;10808;48.010;11.326;2023-10-31T02:48:00;10.60;99.90
21298;DHT22;10808;48.010;11.326;2023-10-31T02:50:26;10.60;99.90
21298;DHT22;10808;48.010;11.326;2023-10-31T02:52:52;10.50;99.90
21298;DHT22;10808;48.010;11.326;2023-10-31T02:55:18;10.50;99.90
21298;DHT22;10808;48.010;11.326;2023-10-31T02:57:44;10.40;99.90
21298;DHT22;10808;48.010;11.326;2023-10-31T03:00:11;10.40;99.90
21298;DHT22;10808;48.010;11.326;2023-10-31T03:02:37;10.30;99.90
21298;DHT22;10808;48.010;11.326;2023-10-31T03:05:04;10.30;99.90
21298;DHT22;10808;48.010;11.326;2023-10-31T03:07:30;10.30;99.90
21298;DHT22;10808;48.010;11.326;2023-10-31T03:09:57;10.30;99.90
21298;DHT22;10808;48.010;11.326;2023-10-31T03:12:23;10.30;99.90
21298;DHT22;10808;48.010;11.326;2023-10-31T03:14:50;10.30;99.90
21298;DHT22;10808;48.010;11.326;2023-10-31T03:17:16;10.30;99.90
21298;DHT22;10808;48.010;11.326;2023-10-31T03:19:42;10.30;99.90
21298;DHT22;10808;48.010;11.326;2023-10-31T03:22:08;10.30;99.90
21298;DHT22;10808;48.010;11.326;2023-10-31T03:24:34;10.30;99.90
21298;DHT22;10808;48.010;11.326;2023-10-31T03:27:01;10.30;99.90
21298;DHT22;10808;48.010;11.326;2023-10-31T03:29:27;10.20;99.90
21298;DHT22;10808;48.010;11.326;2023-10-31T03:31:54;10.30;99.90
21298;DHT22;10808;48.010;11.326;2023-10-31T03:34:21;10.30;99.90
21298;DHT22;10808;48.010;11.326;2023-10-31T03:36:47;10.30;99.90
21298;DHT22;10808;48.010;11.326;2023-10-31T03:39:13;10.20;99.90
21298;DHT22;10808;48.010;11.326;2023-10-31T03:41:39;10.20;99.90
21298;DHT22;10808;48.010;11.326;2023-10-31T03:44:05;10.20;99.90
21298;DHT22;10808;48.010;11.326;2023-10-31T03:46:32;10.20;99.90
21298;DHT22;10808;48.010;11.326;2023-10-31T03:48:58;10.20;99.90
21298;DHT22;10808;48.010;11.326;2023-10-31T03:51:24;10.20;99.90
21298;DHT22;10808;48.010;11.326;2023-10-31T03:53:51;10.20;99.90
21298;DHT22;10808;48.010;11.326;2023-10-31T03:56:17;10.10;99.90
21298;DHT22;10808;48.010;11.326;2023-10-31T03:58:44;10.10;99.90
21298;DHT22;10808;48.010;11.326;2023-10-31T04:01:10;10.10;99.90
21298;DHT22;10808;48.010;11.326;2023-10-31T04:03:36;10.00;99.90
21298;DHT22;10808;48.010;11.326;2023-10-31T04:06:04;10.10;99.90
21298;DHT22;10808;48.010;11.326;2023-10-31T04:08:30;10.10;99.90
21298;DHT22;10808;48.010;11.326;2023-10-31T04:10:56;10.10;99.90
21298;DHT22;10808;48.010;11.326;2023-10-31T04:13:23;10.10;99.90
21298;DHT22;10808;48.010;11.326;2023-10-31T04:15:49;10.10;99.90
21298;DHT22;10808;48.010;11.326;2023-10-31T04:18:15;10.00;99.90
21298;DHT22;10808;48.010;11.326;2023-10-31T04:20:41;10.00;99.90
21298;DHT22;10808;48.010;11.326;2023-10-31T04:23:07;10.00;99.90
21298;DHT22;10808;48.010;11.326;2023-10-31T04:25:34;10.00;99.90
21298;DHT22;10808;48.010;11.326;2023-10-31T04:28:00;10.00;99.90
21298;DHT22;10808;48.010;11.326;2023-10-31T04:30:26;10.00;99.90
21298;DHT22;10808;48.010;11.326;2023-10-31T04:32:53;10.00;99.90
21298;DHT22;10808;48.010;11.326;2023-10-31T04:35:19;10.00;99.90
21298;DHT22;10808;48.010;11.326;2023-10-31T04:37:47;10.00;99.90
21298;DHT22;10808;48.010;11.326;2023-10-31T04:40:13;10.00;99.90
21298;DHT22;10808;48.010;11.326;2023-10-31T04:42:40;10.00;99.90
21298;DHT22;10808;48.010;11.326;2023-10-31T04:45:07;10.00;99.90
21298;DHT22;10808;48.010;11.326;2023-10-31T04:47:33;10.00;99.90
21298;DHT22;10808;48.010;11.326;2023-10-31T04:50:02;10.00;99.90
21298;DHT22;10808;48.010;11.326;2023-10-31T04:52:28;10.00;99.90
21298;DHT22;10808;48.010;11.326;2023-10-31T04:54:54;9.90;99.90
21298;DHT22;10808;48.010;11.326;2023-10-31T04:57:21;10.00;99.90
21298;DHT22;10808;48.010;11.326;2023-10-31T04:59:47;10.00;99.90
21298;DHT22;10808;48.010;11.326;2023-10-31T05:02:13;10.00;99.90
21298;DHT22;10808;48.010;11.326;2023-10-31T05:04:39;10.00;99.90
21298;DHT22;10808;48.010;11.326;2023-10-31T05:07:06;10.00;99.90
21298;DHT22;10808;48.010;11.326;2023-10-31T05:09:32;10.00;99.90
21298;DHT22;10808;48.010;11.326;2023-10-31T05:11:58;10.00;99.90
21298;DHT22;10808;48.010;11.326;2023-10-31T05:14:24;10.00;99.90
21298;DHT22;10808;48.010;11.326;2023-10-31T05:16:50;10.00;99.90
21298;DHT22;10808;48.010;11.326;2023-10-31T05:19:16;9.90;99.90
21298;DHT22;10808;48.010;11.326;2023-10-31T05:21:42;9.90;99.90
21298;DHT22;10808;48.010;11.326;2023-10-31T05:24:09;9.90;99.90
21298;DHT22;10808;48.010;11.326;2023-10-31T05:26:35;9.90;99.90
21298;DHT22;10808;48.010;11.326;2023-10-31T05:29:01;9.90;99.90
21298;DHT22;10808;48.010;11.326;2023-10-31T05:31:28;10.00;99.90
21298;DHT22;10808;48.010;11.326;2023-10-31T05:33:54;10.00;99.90
21298;DHT22;10808;48.010;11.326;2023-10-31T05:36:22;10.00;99.90
21298;DHT22;10808;48.010;11.326;2023-10-31T05:38:49;10.10;99.90
21298;DHT22;10808;48.010;11.326;2023-10-31T05:41:16;10.00;99.90
21298;DHT22;10808;48.010;11.326;2023-10-31T05:43:42;10.00;99.90
21298;DHT22;10808;48.010;11.326;2023-10-31T05:46:08;10.00;99.90
21298;DHT22;10808;48.010;11.326;2023-10-31T05:48:40;10.00;99.90
21298;DHT22;10808;48.010;11.326;2023-10-31T05:51:17;10.00;99.90
21298;DHT22;10808;48.010;11.326;2023-10-31T05:53:45;10.00;99.90
21298;DHT22;10808;48.010;11.326;2023-10-31T05:56:15;10.00;99.90
21298;DHT22;10808;48.010;11.326;2023-10-31T05:58:42;10.10;99.90
21298;DHT22;10808;48.010;11.326;2023-10-31T06:01:08;10.10;99.90
21298;DHT22;10808;48.010;11.326;2023-10-31T06:03:34;10.10;99.90
21298;DHT22;10808;48.010;11.326;2023-10-31T06:06:00;10.10;99.90
21298;DHT22;10808;48.010;11.326;2023-10-31T06:08:27;10.20;99.90
21298;DHT22;10808;48.010;11.326;2023-10-31T06:10:56;10.10;99.90
21298;DHT22;10808;48.010;11.326;2023-10-31T06:13:24;10.10;99.90
21298;DHT22;10808;48.010;11.326;2023-10-31T06:15:51;10.10;99.90
21298;DHT22;10808;48.010;11.326;2023-10-31T06:18:18;10.20;99.90
21298;DHT22;10808;48.010;11.326;2023-10-31T06:20:44;10.20;99.90
21298;DHT22;10808;48.010;11.326;2023-10-31T06:23:10;10.10;99.90
21298;DHT22;10808;48.010;11.326;2023-10-31T06:25:37;10.10;99.90
21298;DHT22;10808;48.010;11.326;2023-10-31T06:28:03;10.10;99.90
21298;DHT22;10808;48.010;11.326;2023-10-31T06:30:29;10.10;99.90
21298;DHT22;10808;48.010;11.326;2023-10-31T06:32:55;10.10;99.90
21298;DHT22;10808;48.010;11.326;2023-10-31T06:35:23;10.00;99.90
21298;DHT22;10808;48.010;11.326;2023-10-31T06:37:55;10.10;99.90
21298;DHT22;10808;48.010;11.326;2023-10-31T06:40:25;10.10;99.90
21298;DHT22;10808;48.010;11.326;2023-10-31T06:42:51;10.00;99.90
21298;DHT22;10808;48.010;11.326;2023-10-31T06:45:17;10.00;99.90
21298;DHT22;10808;48.010;11.326;2023-10-31T06:47:44;10.00;99.90
21298;DHT22;10808;48.010;11.326;2023-10-31T06:50:10;10.00;99.90
21298;DHT22;10808;48.010;11.326;2023-10-31T06:52:36;10.00;99.90
21298;DHT22;10808;48.010;11.326;2023-10-31T06:55:03;10.00;99.90
21298;DHT22;10808;48.010;11.326;2023-10-31T06:57:29;10.00;99.90
21298;DHT22;10808;48.010;11.326;2023-10-31T06:59:56;10.00;99.90
21298;DHT22;10808;48.010;11.326;2023-10-31T07:02:22;10.00;99.90
21298;DHT22;10808;48.010;11.326;2023-10-31T07:04:48;10.00;99.90
21298;DHT22;10808;48.010;11.326;2023-10-31T07:07:15;10.00;99.90
21298;DHT22;10808;48.010;11.326;2023-10-31T07:09:41;10.00;99.90
21298;DHT22;10808;48.010;11.326;2023-10-31T07:12:07;10.00;99.90
21298;DHT22;10808;48.010;11.326;2023-10-31T07:14:33;10.00;99.90
21298;DHT22;10808;48.010;11.326;2023-10-31T07:16:59;10.00;99.90
21298;DHT22;10808;48.010;11.326;2023-10-31T07:19:25;10.10;99.90
21298;DHT22;10808;48.010;11.326;2023-10-31T07:21:52;10.10;99.90
21298;DHT22;10808;48.010;11.326;2023-10-31T07:24:18;10.10;99.90
21298;DHT22;10808;48.010;11.326;2023-10-31T07:26:44;10.10;99.90
21298;DHT22;10808;48.010;11.326;2023-10-31T07:29:10;10.10;99.90
21298;DHT22;10808;48.010;11.326;2023-10-31T07:31:37;10.10;99.90
21298;DHT22;10808;48.010;11.326;2023-10-31T07:34:07;10.10;99.90
21298;DHT22;10808;48.010;11.326;2023-10-31T07:36:35;10.10;99.90
21298;DHT22;10808;48.010;11.326;2023-10-31T07:39:01;10.10;99.90
21298;DHT22;10808;48.010;11.326;2023-10-31T07:41:29;10.10;99.90
21298;DHT22;10808;48.010;11.326;2023-10-31T07:43:55;10.10;99.90
21298;DHT22;10808;48.010;11.326;2023-10-31T07:46:21;10.10;99.90
21298;DHT22;10808;48.010;11.326;2023-10-31T07:48:49;10.10;99.90
21298;DHT22;10808;48.010;11.326;2023-10-31T07:51:15;10.10;99.90
21298;DHT22;10808;48.010;11.326;2023-10-31T07:53:41;10.10;99.90
21298;DHT22;10808;48.010;11.326;2023-10-31T07:56:18;10.10;99.90
21298;DHT22;10808;48.010;11.326;2023-10-31T07:58:51;10.10;99.90
21298;DHT22;10808;48.010;11.326;2023-10-31T08:01:18;10.10;99.90
21298;DHT22;10808;48.010;11.326;2023-10-31T08:03:46;10.10;99.90
21298;DHT22;10808;48.010;11.326;2023-10-31T08:06:13;10.00;99.90
21298;DHT22;10808;48.010;11.326;2023-10-31T08:08:39;10.00;99.90
21298;DHT22;10808;48.010;11.326;2023-10-31T08:11:08;10.10;99.90
21298;DHT22;10808;48.010;11.326;2023-10-31T08:13:38;10.10;99.90
21298;DHT22;10808;48.010;11.326;2023-10-31T08:16:05;10.10;99.90
21298;DHT22;10808;48.010;11.326;2023-10-31T08:18:32;10.10;99.90
21298;DHT22;10808;48.010;11.326;2023-10-31T08:20:58;10.10;99.90
21298;DHT22;10808;48.010;11.326;2023-10-31T08:23:28;10.10;99.90
21298;DHT22;10808;48.010;11.326;2023-10-31T08:25:55;10.20;99.90
21298;DHT22;10808;48.010;11.326;2023-10-31T08:28:21;10.20;99.90
21298;DHT22;10808;48.010;11.326;2023-10-31T08:30:47;10.20;99.90
21298;DHT22;10808;48.010;11.326;2023-10-31T08:33:14;10.20;99.90
21298;DHT22;10808;48.010;11.326;2023-10-31T08:35:40;10.30;99.90
21298;DHT22;10808;48.010;11.326;2023-10-31T08:38:07;10.30;99.90
21298;DHT22;10808;48.010;11.326;2023-10-31T08:40:33;10.30;99.90
21298;DHT22;10808;48.010;11.326;2023-10-31T08:43:01;10.30;99.90
21298;DHT22;10808;48.010;11.326;2023-10-31T08:45:30;10.30;99.90
21298;DHT22;10808;48.010;11.326;2023-10-31T08:47:56;10.30;99.90
21298;DHT22;10808;48.010;11.326;2023-10-31T08:50:23;10.40;99.90
21298;DHT22;10808;48.010;11.326;2023-10-31T08:52:50;10.40;99.90
21298;DHT22;10808;48.010;11.326;2023-10-31T08:55:16;10.50;99.90
21298;DHT22;10808;48.010;11.326;2023-10-31T08:57:42;10.50;99.90
21298;DHT22;10808;48.010;11.326;2023-10-31T09:00:09;10.60;99.90
21298;DHT22;10808;48.010;11.326;2023-10-31T09:02:36;10.60;99.90
21298;DHT22;10808;48.010;11.326;2023-10-31T09:05:02;10.50;99.90
21298;DHT22;10808;48.010;11.326;2023-10-31T09:07:29;10.50;99.90
21298;DHT22;10808;48.010;11.326;2023-10-31T09:09:55;10.50;99.90
21298;DHT22;10808;48.010;11.326;2023-10-31T09:12:21;10.60;99.90
21298;DHT22;10808;48.010;11.326;2023-10-31T09:14:47;10.60;99.90
21298;DHT22;10808;48.010;11.326;2023-10-31T09:17:13;10.60;99.90
21298;DHT22;10808;48.010;11.326;2023-10-31T09:19:39;10.60;99.90
21298;DHT22;10808;48.010;11.326;2023-10-31T09:22:05;10.60;99.90
21298;DHT22;10808;48.010;11.326;2023-10-31T09:24:31;10.70;99.90
21298;DHT22;10808;48.010;11.326;2023-10-31T09:26:57;10.70;99.90
21298;DHT22;10808;48.010;11.326;2023-10-31T09:29:25;10.70;99.90
21298;DHT22;10808;48.010;11.326;2023-10-31T09:31:50;10.70;99.90
21298;DHT22;10808;48.010;11.326;2023-10-31T09:34:16;10.80;99.90
21298;DHT22;10808;48.010;11.326;2023-10-31T09:36:44;10.80;99.90
21298;DHT22;10808;48.010;11.326;2023-10-31T09:39:10;10.80;99.90
21298;DHT22;10808;48.010;11.326;2023-10-31T09:41:36;10.80;99.90
21298;DHT22;10808;48.010;11.326;2023-10-31T09:44:03;10.80;99.90
21298;DHT22;10808;48.010;11.326;2023-10-31T09:46:29;10.90;99.90
21298;DHT22;10808;48.010;11.326;2023-10-31T09:48:56;10.90;99.90
21298;DHT22;10808;48.010;11.326;2023-10-31T09:51:22;11.00;99.90
21298;DHT22;10808;48.010;11.326;2023-10-31T09:53:50;11.00;99.90
21298;DHT22;10808;48.010;11.326;2023-10-31T09:56:19;11.00;99.90
21298;DHT22;10808;48.010;11.326;2023-10-31T09:58:46;11.00;99.90
21298;DHT22;10808;48.010;11.326;2023-10-31T10:01:13;11.10;99.90
21298;DHT22;10808;48.010;11.326;2023-10-31T10:03:41;11.10;99.90
21298;DHT22;10808;48.010;11.326;2023-10-31T10:06:10;11.10;99.90
21298;DHT22;10808;48.010;11.326;2023-10-31T10:08:37;11.00;99.90
21298;DHT22;10808;48.010;11.326;2023-10-31T10:11:05;11.00;99.90
21298;DHT22;10808;48.010;11.326;2023-10-31T10:13:32;11.10;99.90
21298;DHT22;10808;48.010;11.326;2023-10-31T10:16:00;11.10;99.90
21298;DHT22;10808;48.010;11.326;2023-10-31T10:18:30;11.10;99.90
21298;DHT22;10808;48.010;11.326;2023-10-31T10:21:02;11.10;99.90
21298;DHT22;10808;48.010;11.326;2023-10-31T10:23:29;11.10;99.90
21298;DHT22;10808;48.010;11.326;2023-10-31T10:25:56;11.20;99.90
21298;DHT22;10808;48.010;11.326;2023-10-31T10:28:24;11.30;99.90
21298;DHT22;10808;48.010;11.326;2023-10-31T10:30:52;11.30;99.90
21298;DHT22;10808;48.010;11.326;2023-10-31T10:33:19;11.40;99.90
21298;DHT22;10808;48.010;11.326;2023-10-31T10:35:45;11.50;99.90
21298;DHT22;10808;48.010;11.326;2023-10-31T10:38:13;11.60;99.90
21298;DHT22;10808;48.010;11.326;2023-10-31T10:40:45;11.60;99.90
21298;DHT22;10808;48.010;11.326;2023-10-31T10:43:22;11.60;99.90
21298;DHT22;10808;48.010;11.326;2023-10-31T10:45:56;11.70;99.90
21298;DHT22;10808;48.010;11.326;2023-10-31T10:48:25;11.70;99.90
21298;DHT22;10808;48.010;11.326;2023-10-31T10:51:21;11.70;99.90
21298;DHT22;10808;48.010;11.326;2023-10-31T10:54:26;11.70;99.90
21298;DHT22;10808;48.010;11.326;2023-10-31T10:56:54;11.80;99.90
21298;DHT22;10808;48.010;11.326;2023-10-31T10:59:36;11.80;99.90
21298;DHT22;10808;48.010;11.326;2023-10-31T11:02:06;11.80;99.90
21298;DHT22;10808;48.010;11.326;2023-10-31T11:04:33;11.90;99.90
21298;DHT22;10808;48.010;11.326;2023-10-31T11:07:00;11.90;99.90
21298;DHT22;10808;48.010;11.326;2023-10-31T11:09:29;12.00;99.90
21298;DHT22;10808;48.010;11.326;2023-10-31T11:11:57;12.00;99.90
21298;DHT22;10808;48.010;11.326;2023-10-31T11:14:25;12.00;99.90
21298;DHT22;10808;48.010;11.326;2023-10-31T11:16:53;12.00;99.90
21298;DHT22;10808;48.010;11.326;2023-10-31T11:19:22;12.00;99.90
21298;DHT22;10808;48.010;11.326;2023-10-31T11:22:10;12.20;99.90
21298;DHT22;10808;48.010;11.326;2023-10-31T11:24:39;12.20;99.90
21298;DHT22;10808;48.010;11.326;2023-10-31T11:27:07;12.20;99.90
21298;DHT22;10808;48.010;11.326;2023-10-31T11:29:35;12.20;99.90
21298;DHT22;10808;48.010;11.326;2023-10-31T11:32:02;12.30;99.90
21298;DHT22;10808;48.010;11.326;2023-10-31T11:34:32;12.40;99.90
21298;DHT22;10808;48.010;11.326;2023-10-31T11:37:31;12.40;99.90
21298;DHT22;10808;48.010;11.326;2023-10-31T11:42:41;12.60;99.90
21298;DHT22;10808;48.010;11.326;2023-10-31T11:45:08;12.50;99.90
21298;DHT22;10808;48.010;11.326;2023-10-31T11:47:49;12.60;99.90
21298;DHT22;10808;48.010;11.326;2023-10-31T11:50:17;12.60;99.90
21298;DHT22;10808;48.010;11.326;2023-10-31T11:52:44;12.60;99.90
21298;DHT22;10808;48.010;11.326;2023-10-31T11:55:11;12.60;99.90
21298;DHT22;10808;48.010;11.326;2023-10-31T11:57:38;12.60;99.90
21298;DHT22;10808;48.010;11.326;2023-10-31T12:00:06;12.60;99.90
21298;DHT22;10808;48.010;11.326;2023-10-31T12:02:34;12.70;99.90
21298;DHT22;10808;48.010;11.326;2023-10-31T12:05:09;12.70;99.90
21298;DHT22;10808;48.010;11.326;2023-10-31T12:07:45;12.60;99.90
21298;DHT22;10808;48.010;11.326;2023-10-31T12:10:12;12.70;99.90
21298;DHT22;10808;48.010;11.326;2023-10-31T12:12:38;12.70;99.90
21298;DHT22;10808;48.010;11.326;2023-10-31T12:15:09;12.70;99.90
21298;DHT22;10808;48.010;11.326;2023-10-31T12:17:36;12.60;99.90
21298;DHT22;10808;48.010;11.326;2023-10-31T12:20:06;12.60;99.90
21298;DHT22;10808;48.010;11.326;2023-10-31T12:22:34;12.70;99.90
21298;DHT22;10808;48.010;11.326;2023-10-31T12:25:04;12.80;99.90
21298;DHT22;10808;48.010;11.326;2023-10-31T12:27:50;12.70;99.90
21298;DHT22;10808;48.010;11.326;2023-10-31T12:30:17;12.60;99.90
21298;DHT22;10808;48.010;11.326;2023-10-31T12:32:45;12.50;99.90
21298;DHT22;10808;48.010;11.326;2023-10-31T12:35:13;12.50;99.90
21298;DHT22;10808;48.010;11.326;2023-10-31T12:37:47;12.40;99.90
21298;DHT22;10808;48.010;11.326;2023-10-31T12:40:22;12.30;99.90
21298;DHT22;10808;48.010;11.326;2023-10-31T12:42:49;12.30;99.90
21298;DHT22;10808;48.010;11.326;2023-10-31T12:45:18;12.30;99.90
21298;DHT22;10808;48.010;11.326;2023-10-31T12:47:44;12.30;99.90
21298;DHT22;10808;48.010;11.326;2023-10-31T12:50:15;12.30;99.90
21298;DHT22;10808;48.010;11.326;2023-10-31T12:55:15;12.40;99.90
21298;DHT22;10808;48.010;11.326;2023-10-31T12:57:42;12.30;99.90
21298;DHT22;10808;48.010;11.326;2023-10-31T13:00:14;12.30;99.90
21298;DHT22;10808;48.010;11.326;2023-10-31T13:02:41;12.30;99.90
21298;DHT22;10808;48.010;11.326;2023-10-31T13:05:13;12.30;99.90
21298;DHT22;10808;48.010;11.326;2023-10-31T13:07:41;12.20;99.90
21298;DHT22;10808;48.010;11.326;2023-10-31T13:10:13;12.20;99.90
21298;DHT22;10808;48.010;11.326;2023-10-31T13:12:43;12.20;99.90
21298;DHT22;10808;48.010;11.326;2023-10-31T13:15:10;12.20;99.90
21298;DHT22;10808;48.010;11.326;2023-10-31T13:17:37;12.20;99.90
21298;DHT22;10808;48.010;11.326;2023-10-31T13:20:05;12.20;99.90
21298;DHT22;10808;48.010;11.326;2023-10-31T13:22:32;12.20;99.90
21298;DHT22;10808;48.010;11.326;2023-10-31T13:24:58;12.20;99.90
21298;DHT22;10808;48.010;11.326;2023-10-31T13:27:24;12.10;99.90
21298;DHT22;10808;48.010;11.326;2023-10-31T13:29:50;12.10;99.90
21298;DHT22;10808;48.010;11.326;2023-10-31T13:32:16;12.10;99.90
21298;DHT22;10808;48.010;11.326;2023-10-31T13:34:43;12.10;99.90
21298;DHT22;10808;48.010;11.326;2023-10-31T13:37:09;12.10;99.90
21298;DHT22;10808;48.010;11.326;2023-10-31T13:39:35;12.10;99.90
21298;DHT22;10808;48.010;11.326;2023-10-31T13:42:01;12.00;99.90
21298;DHT22;10808;48.010;11.326;2023-10-31T13:44:27;12.00;99.90
21298;DHT22;10808;48.010;11.326;2023-10-31T13:46:53;12.00;99.90
21298;DHT22;10808;48.010;11.326;2023-10-31T13:49:20;11.90;99.90
21298;DHT22;10808;48.010;11.326;2023-10-31T13:51:47;11.90;99.90
21298;DHT22;10808;48.010;11.326;2023-10-31T13:54:14;11.90;99.90
21298;DHT22;10808;48.010;11.326;2023-10-31T13:56:40;11.90;99.90
21298;DHT22;10808;48.010;11.326;2023-10-31T13:59:06;11.90;99.90
21298;DHT22;10808;48.010;11.326;2023-10-31T14:01:32;11.90;99.90
21298;DHT22;10808;48.010;11.326;2023-10-31T14:03:58;11.90;99.90
21298;DHT22;10808;48.010;11.326;2023-10-31T14:06:25;11.90;99.90
21298;DHT22;10808;48.010;11.326;2023-10-31T14:08:58;11.90;99.90
21298;DHT22;10808;48.010;11.326;2023-10-31T14:11:25;11.90;99.90
21298;DHT22;10808;48.010;11.326;2023-10-31T14:13:51;11.90;99.90
21298;DHT22;10808;48.010;11.326;2023-10-31T14:16:18;11.90;99.90
21298;DHT22;10808;48.010;11.326;2023-10-31T14:18:44;12.00;99.90
21298;DHT22;10808;48.010;11.326;2023-10-31T14:21:12;12.10;99.90
21298;DHT22;10808;48.010;11.326;2023-10-31T14:23:39;12.10;99.90
21298;DHT22;10808;48.010;11.326;2023-10-31T14:26:05;12.10;99.90
21298;DHT22;10808;48.010;11.326;2023-10-31T14:28:31;12.20;99.90
21298;DHT22;10808;48.010;11.326;2023-10-31T14:30:58;12.20;99.90
21298;DHT22;10808;48.010;11.326;2023-10-31T14:33:24;12.20;99.90
21298;DHT22;10808;48.010;11.326;2023-10-31T14:35:50;12.30;99.90
21298;DHT22;10808;48.010;11.326;2023-10-31T14:38:16;12.30;99.90
21298;DHT22;10808;48.010;11.326;2023-10-31T14:40:42;12.30;99.90
21298;DHT22;10808;48.010;11.326;2023-10-31T14:43:08;12.30;99.90
21298;DHT22;10808;48.010;11.326;2023-10-31T14:45:34;12.30;99.90
21298;DHT22;10808;48.010;11.326;2023-10-31T14:48:00;12.30;99.90
21298;DHT22;10808;48.010;11.326;2023-10-31T14:50:27;12.30;99.90
21298;DHT22;10808;48.010;11.326;2023-10-31T14:52:53;12.30;99.90
21298;DHT22;10808;48.010;11.326;2023-10-31T14:55:19;12.30;99.90
21298;DHT22;10808;48.010;11.326;2023-10-31T14:57:45;12.20;99.90
21298;DHT22;10808;48.010;11.326;2023-10-31T15:00:11;12.20;99.90
21298;DHT22;10808;48.010;11.326;2023-10-31T15:02:40;12.20;99.90
21298;DHT22;10808;48.010;11.326;2023-10-31T15:05:06;12.10;99.90
21298;DHT22;10808;48.010;11.326;2023-10-31T15:07:32;12.10;99.90
21298;DHT22;10808;48.010;11.326;2023-10-31T15:09:58;12.10;99.90
21298;DHT22;10808;48.010;11.326;2023-10-31T15:12:24;12.10;99.90
21298;DHT22;10808;48.010;11.326;2023-10-31T15:14:52;12.10;99.90
21298;DHT22;10808;48.010;11.326;2023-10-31T15:17:18;12.10;99.90
21298;DHT22;10808;48.010;11.326;2023-10-31T15:19:44;12.00;99.90
21298;DHT22;10808;48.010;11.326;2023-10-31T15:22:11;12.00;99.90
21298;DHT22;10808;48.010;11.326;2023-10-31T15:24:37;11.90;99.90